Time;durP1;ratioP1;P1;durP2;ratioP2;P2;SDS_P1;SDS_P2;PMS_P1;PMS_P2;Temp;Humidity;BMP_temperature;BMP_pressure;BME280_temperature;BME280_humidity;BME280_pressure;Samples;Min_cycle;Max_cycle;Signal;HPM_P1;HPM_P2
2022/03/26 00:02:14;;;;;;;47.65;19.65;;;;;;;;;;5053351;28;20049;-68
2022/03/26 00:04:40;;;;;;;45.63;20.88;;;;;;;;;;5053149;28;20124;-69
2022/03/26 00:07:06;;;;;;;47.58;21.55;;;;;;;;;;5053034;28;20547;-68
2022/03/26 00:09:32;;;;;;;38.50;18.95;;;;;;;;;;5052915;28;20143;-68
2022/03/26 00:11:58;;;;;;;48.95;20.70;;;;;;;;;;5053274;28;20123;-68
2022/03/26 00:14:24;;;;;;;46.67;20.55;;;;;;;;;;5053148;28;20051;-68
2022/03/26 00:16:50;;;;;;;50.35;21.55;;;;;;;;;;5053095;28;20056;-68
2022/03/26 00:19:16;;;;;;;50.42;20.73;;;;;;;;;;5053016;28;20041;-68
2022/03/26 00:21:43;;;;;;;40.15;19.30;;;;;;;;;;5035326;28;20479;-69
2022/03/26 00:24:09;;;;;;;45.78;20.48;;;;;;;;;;5053065;28;20049;-69
2022/03/26 00:26:35;;;;;;;48.80;20.75;;;;;;;;;;5053073;28;20037;-69
2022/03/26 00:29:01;;;;;;;44.80;20.83;;;;;;;;;;5053004;28;20048;-68
2022/03/26 00:31:27;;;;;;;45.03;21.00;;;;;;;;;;5053185;28;20049;-69
2022/03/26 00:33:54;;;;;;;47.33;20.27;;;;;;;;;;5035085;28;20045;-69
2022/03/26 00:36:20;;;;;;;44.60;20.23;;;;;;;;;;5053250;28;20052;-69
2022/03/26 00:38:46;;;;;;;46.47;20.98;;;;;;;;;;5018381;28;20118;-68
2022/03/26 00:41:12;;;;;;;46.85;20.45;;;;;;;;;;5053077;28;20041;-68
2022/03/26 00:43:38;;;;;;;49.38;20.33;;;;;;;;;;5036902;28;20056;-68
2022/03/26 00:46:04;;;;;;;46.53;21.00;;;;;;;;;;5056939;28;20048;-68
2022/03/26 00:48:30;;;;;;;56.45;21.52;;;;;;;;;;5038818;28;20045;-68
2022/03/26 00:50:56;;;;;;;47.45;20.40;;;;;;;;;;5056708;28;20120;-69
2022/03/26 00:53:22;;;;;;;50.50;21.75;;;;;;;;;;5038648;28;20380;-69
2022/03/26 00:55:48;;;;;;;47.20;20.77;;;;;;;;;;5056571;28;20049;-69
2022/03/26 00:58:14;;;;;;;45.53;21.42;;;;;;;;;;5057013;28;20048;-69
2022/03/26 01:00:42;;;;;;;50.53;21.40;;;;;;;;;;5038759;28;20492;-69
2022/03/26 01:03:09;;;;;;;50.17;21.05;;;;;;;;;;5056546;28;20067;-68
2022/03/26 01:05:35;;;;;;;57.03;23.77;;;;;;;;;;5056350;28;20504;-69
2022/03/26 01:08:02;;;;;;;65.50;24.23;;;;;;;;;;5056698;28;20041;-69
2022/03/26 01:10:28;;;;;;;51.53;22.02;;;;;;;;;;5039401;28;20399;-69
2022/03/26 01:12:54;;;;;;;53.95;21.95;;;;;;;;;;5041054;28;20492;-69
2022/03/26 01:15:21;;;;;;;54.33;24.40;;;;;;;;;;5040666;28;20076;-69
2022/03/26 01:17:47;;;;;;;53.75;24.02;;;;;;;;;;5056573;28;20099;-69
2022/03/26 01:20:13;;;;;;;57.85;24.23;;;;;;;;;;5038388;28;20044;-69
2022/03/26 01:22:39;;;;;;;56.92;23.65;;;;;;;;;;5056400;28;20067;-69
2022/03/26 01:25:06;;;;;;;58.58;24.30;;;;;;;;;;5056496;28;20481;-68
2022/03/26 01:27:32;;;;;;;57.42;24.30;;;;;;;;;;5056075;28;20041;-68
2022/03/26 01:29:58;;;;;;;58.92;24.55;;;;;;;;;;5038353;28;20083;-68
2022/03/26 01:32:24;;;;;;;58.63;25.08;;;;;;;;;;5038266;28;20102;-68
2022/03/26 01:34:50;;;;;;;64.65;25.65;;;;;;;;;;5055805;28;20424;-68
2022/03/26 01:37:16;;;;;;;57.72;25.33;;;;;;;;;;5056059;28;20044;-68
2022/03/26 01:39:42;;;;;;;59.47;25.20;;;;;;;;;;5056016;28;20053;-68
2022/03/26 01:42:08;;;;;;;55.15;24.58;;;;;;;;;;5037907;28;20519;-68
2022/03/26 01:44:35;;;;;;;57.25;25.90;;;;;;;;;;5055474;28;20056;-68
2022/03/26 01:47:01;;;;;;;59.65;25.70;;;;;;;;;;5055668;28;20049;-69
2022/03/26 01:49:27;;;;;;;61.08;25.95;;;;;;;;;;5055495;28;20499;-69
2022/03/26 01:51:54;;;;;;;59.53;25.45;;;;;;;;;;5055671;28;20045;-68
2022/03/26 01:54:20;;;;;;;56.17;24.38;;;;;;;;;;5037821;28;20119;-68
2022/03/26 01:56:46;;;;;;;59.55;25.42;;;;;;;;;;5037585;28;20090;-68
2022/03/26 01:59:13;;;;;;;57.88;27.45;;;;;;;;;;5055460;28;20045;-68
2022/03/26 02:01:39;;;;;;;58.67;26.13;;;;;;;;;;5055878;28;20049;-68
2022/03/26 02:04:06;;;;;;;61.50;25.50;;;;;;;;;;5055358;28;20041;-68
2022/03/26 02:06:33;;;;;;;64.50;27.58;;;;;;;;;;5055446;28;20049;-68
2022/03/26 02:09:01;;;;;;;66.88;28.13;;;;;;;;;;5055399;28;20055;-68
2022/03/26 02:11:31;;;;;;;67.85;28.00;;;;;;;;;;5037620;28;20043;-68
2022/03/26 02:13:57;;;;;;;74.30;30.67;;;;;;;;;;5055287;28;20076;-69
2022/03/26 02:16:24;;;;;;;78.20;30.40;;;;;;;;;;5055051;28;20053;-69
2022/03/26 02:18:51;;;;;;;73.65;28.77;;;;;;;;;;5055313;28;20053;-69
2022/03/26 02:21:17;;;;;;;71.70;30.85;;;;;;;;;;5055608;28;20051;-69
2022/03/26 02:23:44;;;;;;;72.95;32.08;;;;;;;;;;5037383;28;20056;-68
2022/03/26 02:26:10;;;;;;;71.82;29.85;;;;;;;;;;5055266;28;20044;-68
2022/03/26 02:28:36;;;;;;;74.72;30.75;;;;;;;;;;5054907;28;20047;-69
2022/03/26 02:31:02;;;;;;;67.88;29.45;;;;;;;;;;5054653;28;20049;-69
2022/03/26 02:33:28;;;;;;;77.80;31.33;;;;;;;;;;5055083;28;20052;-68
2022/03/26 02:35:55;;;;;;;74.28;30.08;;;;;;;;;;5054885;28;20037;-69
2022/03/26 02:38:23;;;;;;;63.45;26.58;;;;;;;;;;5054990;28;20037;-68
2022/03/26 02:40:49;;;;;;;77.90;31.73;;;;;;;;;;5054394;28;20055;-69
2022/03/26 02:43:15;;;;;;;77.25;30.92;;;;;;;;;;5054479;28;20040;-69
2022/03/26 02:45:44;;;;;;;76.30;30.00;;;;;;;;;;5054861;28;20044;-69
2022/03/26 02:48:13;;;;;;;67.50;28.25;;;;;;;;;;5054493;28;20103;-68
2022/03/26 02:50:42;;;;;;;74.20;29.85;;;;;;;;;;5037077;28;20049;-69
2022/03/26 02:53:09;;;;;;;68.90;28.48;;;;;;;;;;5054609;28;20037;-69
2022/03/26 02:55:35;;;;;;;79.20;30.20;;;;;;;;;;5054462;28;20049;-69
2022/03/26 02:58:02;;;;;;;64.95;27.25;;;;;;;;;;5054318;28;20164;-68
2022/03/26 03:00:28;;;;;;;65.07;27.00;;;;;;;;;;5036385;28;20041;-67
2022/03/26 03:02:53;;;;;;;70.88;27.85;;;;;;;;;;5054567;28;20365;-67
2022/03/26 03:05:19;;;;;;;62.67;25.70;;;;;;;;;;5053775;28;20049;-67
2022/03/26 03:07:46;;;;;;;61.28;25.85;;;;;;;;;;5053974;28;20037;-67
2022/03/26 03:10:15;;;;;;;57.10;25.52;;;;;;;;;;5036420;28;20134;-68
2022/03/26 03:12:41;;;;;;;57.78;26.20;;;;;;;;;;5053987;28;20131;-67
2022/03/26 03:15:08;;;;;;;53.85;24.25;;;;;;;;;;5036226;28;20072;-67
2022/03/26 03:17:40;;;;;;;62.78;24.48;;;;;;;;;;5036408;28;20107;-68
2022/03/26 03:20:07;;;;;;;61.05;24.73;;;;;;;;;;5054082;28;20112;-67
2022/03/26 03:22:33;;;;;;;64.40;26.40;;;;;;;;;;5036200;28;20049;-67
2022/03/26 03:25:00;;;;;;;60.78;26.42;;;;;;;;;;5053883;28;20044;-68
2022/03/26 03:27:26;;;;;;;68.35;26.40;;;;;;;;;;5053562;28;20075;-68
2022/03/26 03:29:52;;;;;;;62.83;25.40;;;;;;;;;;5054031;28;20164;-68
2022/03/26 03:32:18;;;;;;;76.95;27.00;;;;;;;;;;5053960;28;20044;-68
2022/03/26 03:34:44;;;;;;;62.45;24.92;;;;;;;;;;5053697;28;20396;-68
2022/03/26 03:37:10;;;;;;;73.10;27.17;;;;;;;;;;5053699;28;20128;-67
2022/03/26 03:39:36;;;;;;;61.28;24.85;;;;;;;;;;5053539;28;20484;-68
2022/03/26 03:42:04;;;;;;;65.60;25.02;;;;;;;;;;5035889;28;20088;-68
2022/03/26 03:44:30;;;;;;;58.10;23.95;;;;;;;;;;5018893;28;20191;-68
2022/03/26 03:46:56;;;;;;;56.65;23.98;;;;;;;;;;5035423;28;20109;-67
2022/03/26 03:49:22;;;;;;;60.13;25.15;;;;;;;;;;5053926;28;20044;-68
2022/03/26 03:51:48;;;;;;;61.25;25.60;;;;;;;;;;5053410;28;20048;-68
2022/03/26 03:54:14;;;;;;;62.45;26.55;;;;;;;;;;5053137;28;20128;-68
2022/03/26 03:56:41;;;;;;;56.63;23.55;;;;;;;;;;5053168;28;20053;-68
2022/03/26 03:59:07;;;;;;;57.30;25.02;;;;;;;;;;5053245;28;20484;-68
2022/03/26 04:01:34;;;;;;;54.83;22.63;;;;;;;;;;5035630;28;20055;-67
2022/03/26 04:04:00;;;;;;;55.75;23.42;;;;;;;;;;5053203;28;20499;-66
2022/03/26 04:06:26;;;;;;;64.53;25.80;;;;;;;;;;5053277;28;20083;-66
2022/03/26 04:08:52;;;;;;;59.88;24.10;;;;;;;;;;5018748;28;20087;-66
2022/03/26 04:11:18;;;;;;;58.17;25.40;;;;;;;;;;5053466;28;20041;-67
2022/03/26 04:13:46;;;;;;;56.22;23.90;;;;;;;;;;5053240;28;20041;-66
2022/03/26 04:16:12;;;;;;;59.95;23.73;;;;;;;;;;5053182;28;20053;-67
2022/03/26 04:18:38;;;;;;;61.70;25.08;;;;;;;;;;5052285;28;20128;-67
2022/03/26 04:21:04;;;;;;;69.15;24.23;;;;;;;;;;5053157;28;20069;-68
2022/03/26 04:23:30;;;;;;;68.78;26.15;;;;;;;;;;5035177;28;20051;-68
2022/03/26 04:25:56;;;;;;;63.58;25.73;;;;;;;;;;5053695;28;20041;-68
2022/03/26 04:28:22;;;;;;;60.03;24.33;;;;;;;;;;5036801;28;20049;-68
2022/03/26 04:30:48;;;;;;;65.70;26.13;;;;;;;;;;5052879;28;20415;-67
2022/03/26 04:33:15;;;;;;;65.78;24.27;;;;;;;;;;5053327;28;20048;-68
2022/03/26 04:35:41;;;;;;;75.68;26.80;;;;;;;;;;5052888;28;20084;-68
2022/03/26 04:38:07;;;;;;;90.75;29.65;;;;;;;;;;5052917;28;20107;-68
2022/03/26 04:40:33;;;;;;;71.10;27.65;;;;;;;;;;5053064;28;20044;-68
2022/03/26 04:42:59;;;;;;;75.63;26.63;;;;;;;;;;5052868;28;20053;-68
2022/03/26 04:45:25;;;;;;;68.65;26.83;;;;;;;;;;5052609;28;20049;-68
2022/03/26 04:47:51;;;;;;;70.90;27.38;;;;;;;;;;5052688;28;20041;-68
2022/03/26 04:50:17;;;;;;;69.47;27.95;;;;;;;;;;5052710;28;20052;-68
2022/03/26 04:52:43;;;;;;;64.72;26.17;;;;;;;;;;5052531;28;20063;-68
2022/03/26 04:55:11;;;;;;;78.15;28.10;;;;;;;;;;5052737;28;20041;-68
2022/03/26 04:57:40;;;;;;;76.93;28.13;;;;;;;;;;5052789;28;20099;-67
2022/03/26 05:00:08;;;;;;;77.93;29.48;;;;;;;;;;5052777;28;20044;-68
2022/03/26 05:02:35;;;;;;;94.32;32.53;;;;;;;;;;5052661;28;20107;-68
2022/03/26 05:05:01;;;;;;;94.07;33.60;;;;;;;;;;5052636;28;20462;-67
2022/03/26 05:10:11;;;;;;;88.75;33.33;;;;;;;;;;5035028;28;20057;-68
2022/03/26 05:12:37;;;;;;;99.90;35.17;;;;;;;;;;5034992;28;20041;-67
2022/03/26 05:15:03;;;;;;;98.65;35.13;;;;;;;;;;5053254;28;20048;-67
2022/03/26 05:17:30;;;;;;;111.25;36.58;;;;;;;;;;5052492;28;20420;-67
2022/03/26 05:19:56;;;;;;;122.68;37.53;;;;;;;;;;5034444;28;20045;-67
2022/03/26 05:22:22;;;;;;;103.25;34.05;;;;;;;;;;5052793;28;20060;-69
2022/03/26 05:24:48;;;;;;;97.25;36.05;;;;;;;;;;5052535;28;20123;-68
2022/03/26 05:27:14;;;;;;;111.60;37.60;;;;;;;;;;5052494;28;20492;-68
2022/03/26 05:29:40;;;;;;;107.07;36.20;;;;;;;;;;5054614;28;20052;-68
2022/03/26 05:32:06;;;;;;;123.43;36.92;;;;;;;;;;5055959;28;20049;-68
2022/03/26 05:34:33;;;;;;;100.80;36.45;;;;;;;;;;5055818;28;20148;-68
2022/03/26 05:36:59;;;;;;;95.72;32.83;;;;;;;;;;5055997;28;20052;-68
2022/03/26 05:39:25;;;;;;;93.70;32.70;;;;;;;;;;5056093;28;20033;-68
2022/03/26 05:41:51;;;;;;;127.85;39.78;;;;;;;;;;5056002;28;20052;-68
2022/03/26 05:44:17;;;;;;;111.05;37.22;;;;;;;;;;5056156;28;20061;-68
2022/03/26 05:46:43;;;;;;;189.90;49.10;;;;;;;;;;5056225;28;20110;-68
2022/03/26 05:49:09;;;;;;;99.93;34.55;;;;;;;;;;5056059;28;20430;-68
2022/03/26 05:51:36;;;;;;;100.38;35.30;;;;;;;;;;5038023;28;20124;-68
2022/03/26 05:54:02;;;;;;;92.15;33.67;;;;;;;;;;5055684;28;20045;-68
2022/03/26 05:56:28;;;;;;;110.50;37.13;;;;;;;;;;5037643;28;20087;-68
2022/03/26 05:58:54;;;;;;;111.32;37.25;;;;;;;;;;5055569;28;20045;-68
2022/03/26 06:01:21;;;;;;;116.45;39.22;;;;;;;;;;5056005;28;20041;-68
2022/03/26 06:03:47;;;;;;;104.97;37.00;;;;;;;;;;5055197;28;20400;-68
2022/03/26 06:06:14;;;;;;;128.90;41.05;;;;;;;;;;5055464;28;20037;-69
2022/03/26 06:08:40;;;;;;;176.80;49.45;;;;;;;;;;5055410;28;20051;-68
2022/03/26 06:11:05;;;;;;;137.40;40.40;;;;;;;;;;5021001;28;20052;-68
2022/03/26 06:13:31;;;;;;;160.48;46.80;;;;;;;;;;5055250;28;20103;-68
2022/03/26 06:15:57;;;;;;;125.35;40.25;;;;;;;;;;5037292;28;20051;-68
2022/03/26 06:18:23;;;;;;;90.88;34.97;;;;;;;;;;5037219;28;20049;-68
2022/03/26 06:20:49;;;;;;;127.90;41.45;;;;;;;;;;5037660;28;20041;-68
2022/03/26 06:23:15;;;;;;;104.07;38.13;;;;;;;;;;5055053;28;20083;-68
2022/03/26 06:25:41;;;;;;;136.70;43.38;;;;;;;;;;5054997;28;20045;-68
2022/03/26 06:28:07;;;;;;;100.47;37.13;;;;;;;;;;5054796;28;20045;-68
2022/03/26 06:30:33;;;;;;;129.10;43.08;;;;;;;;;;5054521;28;20052;-68
2022/03/26 06:32:59;;;;;;;127.80;44.75;;;;;;;;;;5054315;28;20037;-68
2022/03/26 06:35:25;;;;;;;123.05;44.75;;;;;;;;;;5036796;28;20045;-68
2022/03/26 06:37:51;;;;;;;152.93;50.30;;;;;;;;;;5036542;28;20503;-68
2022/03/26 06:40:17;;;;;;;145.10;46.28;;;;;;;;;;5035863;28;20056;-68
2022/03/26 06:42:43;;;;;;;147.77;49.30;;;;;;;;;;5036646;28;20037;-68
2022/03/26 06:45:09;;;;;;;163.50;51.22;;;;;;;;;;5033772;28;20052;-68
2022/03/26 06:47:35;;;;;;;141.50;50.78;;;;;;;;;;5054197;28;20060;-68
2022/03/26 06:50:01;;;;;;;164.75;54.22;;;;;;;;;;5054512;28;20041;-68
2022/03/26 06:52:27;;;;;;;197.57;59.53;;;;;;;;;;5036490;28;20488;-68
2022/03/26 06:54:53;;;;;;;147.48;49.55;;;;;;;;;;5054176;28;20515;-68
2022/03/26 06:57:19;;;;;;;142.00;51.30;;;;;;;;;;5031680;28;20053;-68
2022/03/26 06:59:45;;;;;;;148.20;51.05;;;;;;;;;;5033847;28;20045;-68
2022/03/26 07:02:12;;;;;;;163.55;55.10;;;;;;;;;;5034454;28;20040;-68
2022/03/26 07:04:38;;;;;;;213.70;63.28;;;;;;;;;;5033753;28;20408;-68
2022/03/26 07:07:05;;;;;;;183.57;59.42;;;;;;;;;;5034497;28;20053;-68
2022/03/26 07:09:31;;;;;;;175.25;58.70;;;;;;;;;;5016790;28;20107;-68
2022/03/26 07:11:57;;;;;;;156.52;55.58;;;;;;;;;;5034540;28;20038;-68
2022/03/26 07:14:23;;;;;;;174.77;57.65;;;;;;;;;;5041336;28;20128;-68
2022/03/26 07:16:49;;;;;;;159.55;56.80;;;;;;;;;;5034194;28;20037;-68
2022/03/26 07:19:15;;;;;;;145.85;54.15;;;;;;;;;;5034565;28;20129;-69
2022/03/26 07:21:41;;;;;;;143.75;55.10;;;;;;;;;;5053721;28;20079;-69
2022/03/26 07:24:07;;;;;;;151.20;54.53;;;;;;;;;;5054143;28;20044;-69
2022/03/26 07:26:33;;;;;;;152.05;57.08;;;;;;;;;;5035772;28;20053;-69
2022/03/26 07:28:59;;;;;;;160.55;56.25;;;;;;;;;;5053565;28;20515;-69
2022/03/26 07:31:25;;;;;;;143.70;51.67;;;;;;;;;;5053976;28;20045;-69
2022/03/26 07:33:52;;;;;;;153.80;54.25;;;;;;;;;;5035980;28;20044;-69
2022/03/26 07:36:18;;;;;;;129.48;48.92;;;;;;;;;;5053814;28;20044;-69
2022/03/26 07:38:44;;;;;;;139.00;51.38;;;;;;;;;;5054273;28;20045;-69
2022/03/26 07:41:10;;;;;;;134.80;51.70;;;;;;;;;;5056041;28;20072;-69
2022/03/26 07:43:36;;;;;;;137.68;49.60;;;;;;;;;;5053733;28;20137;-69
2022/03/26 07:46:02;;;;;;;129.95;50.17;;;;;;;;;;5035580;28;20494;-69
2022/03/26 07:48:28;;;;;;;134.07;49.83;;;;;;;;;;5053703;28;20076;-69
2022/03/26 07:50:54;;;;;;;130.65;47.60;;;;;;;;;;5053353;28;20064;-69
2022/03/26 07:53:22;;;;;;;126.05;48.95;;;;;;;;;;5053041;28;20052;-69
2022/03/26 07:55:48;;;;;;;118.95;45.05;;;;;;;;;;5053376;28;20053;-69
2022/03/26 07:58:14;;;;;;;142.70;50.80;;;;;;;;;;5052612;28;20041;-69
2022/03/26 08:00:40;;;;;;;129.35;46.97;;;;;;;;;;5052969;28;20523;-69
2022/03/26 08:03:06;;;;;;;108.43;43.88;;;;;;;;;;5035060;28;20092;-69
2022/03/26 08:05:32;;;;;;;115.43;45.30;;;;;;;;;;5053331;28;20045;-69
2022/03/26 08:07:58;;;;;;;116.55;47.85;;;;;;;;;;5053137;28;20048;-68
2022/03/26 08:10:24;;;;;;;102.93;41.75;;;;;;;;;;5034976;28;20041;-68
2022/03/26 08:12:50;;;;;;;108.55;43.97;;;;;;;;;;5035064;28;20440;-69
2022/03/26 08:15:16;;;;;;;121.43;45.05;;;;;;;;;;5053009;28;20041;-69
2022/03/26 08:17:42;;;;;;;107.60;44.67;;;;;;;;;;5053053;28;20076;-69
2022/03/26 08:20:08;;;;;;;126.25;49.40;;;;;;;;;;5035048;28;20045;-69
2022/03/26 08:22:34;;;;;;;118.53;46.53;;;;;;;;;;5052877;28;20041;-69
2022/03/26 08:25:01;;;;;;;96.28;40.10;;;;;;;;;;5052626;28;20093;-69
2022/03/26 08:27:27;;;;;;;101.10;41.67;;;;;;;;;;5052856;28;20036;-69
2022/03/26 08:29:53;;;;;;;104.10;43.65;;;;;;;;;;5053033;28;20041;-69
2022/03/26 08:32:19;;;;;;;91.32;38.75;;;;;;;;;;5053013;28;20041;-69
2022/03/26 08:34:45;;;;;;;92.80;36.45;;;;;;;;;;5052942;28;20041;-69
2022/03/26 08:37:11;;;;;;;94.00;36.63;;;;;;;;;;5034930;28;20045;-69
2022/03/26 08:39:37;;;;;;;104.70;39.00;;;;;;;;;;5035019;28;20067;-69
2022/03/26 08:42:03;;;;;;;95.18;36.08;;;;;;;;;;5034990;28;20036;-69
2022/03/26 08:44:29;;;;;;;95.00;35.60;;;;;;;;;;5052667;28;20059;-69
2022/03/26 08:46:57;;;;;;;120.38;42.10;;;;;;;;;;5052166;28;20061;-69
2022/03/26 08:49:23;;;;;;;91.35;36.75;;;;;;;;;;5052408;28;20112;-69
2022/03/26 08:51:49;;;;;;;85.25;34.25;;;;;;;;;;5052448;28;20461;-69
2022/03/26 08:54:15;;;;;;;84.03;33.08;;;;;;;;;;5052229;28;20064;-69
2022/03/26 08:56:41;;;;;;;85.20;32.10;;;;;;;;;;5052283;28;20102;-69
2022/03/26 08:59:07;;;;;;;77.97;32.92;;;;;;;;;;5052489;28;20048;-69
2022/03/26 09:01:33;;;;;;;84.32;32.17;;;;;;;;;;5052193;28;20481;-69
2022/03/26 09:03:59;;;;;;;66.63;27.30;;;;;;;;;;5035410;28;20075;-69
2022/03/26 09:06:25;;;;;;;64.65;26.73;;;;;;;;;;5056520;28;20044;-69
2022/03/26 09:08:51;;;;;;;62.83;26.50;;;;;;;;;;5056029;28;20451;-69
2022/03/26 09:11:17;;;;;;;67.93;27.17;;;;;;;;;;5056097;28;20043;-69
2022/03/26 09:13:43;;;;;;;60.33;26.75;;;;;;;;;;5056333;28;20485;-69
2022/03/26 09:16:09;;;;;;;72.13;26.50;;;;;;;;;;5056350;28;20569;-69
2022/03/26 09:18:35;;;;;;;49.33;21.63;;;;;;;;;;5056506;28;20037;-69
2022/03/26 09:21:01;;;;;;;46.90;19.67;;;;;;;;;;5056280;28;20086;-69
2022/03/26 09:23:27;;;;;;;57.65;21.88;;;;;;;;;;5056186;28;20166;-69
2022/03/26 09:25:53;;;;;;;60.85;22.65;;;;;;;;;;5038290;28;20508;-69
2022/03/26 09:28:19;;;;;;;64.88;23.27;;;;;;;;;;5056094;28;20052;-69
2022/03/26 09:30:45;;;;;;;45.13;19.58;;;;;;;;;;5056617;28;20098;-69
2022/03/26 09:33:11;;;;;;;57.25;23.30;;;;;;;;;;5056173;28;20128;-69
2022/03/26 09:35:38;;;;;;;48.78;21.10;;;;;;;;;;5056320;28;20040;-69
2022/03/26 09:38:04;;;;;;;43.28;20.55;;;;;;;;;;5055928;28;20494;-69
2022/03/26 09:40:32;;;;;;;57.53;25.33;;;;;;;;;;5038241;28;20065;-69
2022/03/26 09:42:58;;;;;;;48.03;22.67;;;;;;;;;;5056157;28;20059;-69
2022/03/26 09:45:24;;;;;;;49.65;22.60;;;;;;;;;;5055527;28;20081;-69
2022/03/26 09:47:53;;;;;;;50.63;22.85;;;;;;;;;;5037791;28;20073;-69
2022/03/26 09:50:21;;;;;;;57.47;25.02;;;;;;;;;;5055730;28;20160;-69
2022/03/26 09:52:47;;;;;;;52.17;23.87;;;;;;;;;;5055766;28;20400;-69
2022/03/26 09:55:13;;;;;;;46.30;22.88;;;;;;;;;;5055847;28;20040;-69
2022/03/26 09:57:39;;;;;;;41.45;21.85;;;;;;;;;;5055684;28;20040;-69
2022/03/26 10:00:06;;;;;;;44.20;21.10;;;;;;;;;;5055752;28;20041;-69
2022/03/26 10:02:32;;;;;;;37.65;21.17;;;;;;;;;;5021433;28;20049;-69
2022/03/26 10:04:58;;;;;;;38.45;19.98;;;;;;;;;;5038091;28;20041;-69
2022/03/26 10:07:29;;;;;;;36.78;19.83;;;;;;;;;;5037851;28;20480;-69
2022/03/26 10:09:55;;;;;;;38.38;20.65;;;;;;;;;;5055656;28;20112;-69
2022/03/26 10:12:24;;;;;;;53.92;21.90;;;;;;;;;;5055401;28;20538;-69
2022/03/26 10:14:57;;;;;;;37.50;19.50;;;;;;;;;;5055226;28;20449;-69
2022/03/26 10:17:30;;;;;;;33.58;17.85;;;;;;;;;;5055594;28;20369;-69
2022/03/26 10:19:57;;;;;;;37.85;18.67;;;;;;;;;;5037764;28;20107;-70
2022/03/26 10:22:34;;;;;;;33.70;19.77;;;;;;;;;;5055070;28;20484;-70
2022/03/26 10:25:03;;;;;;;37.70;19.58;;;;;;;;;;5037341;28;20059;-69
2022/03/26 10:27:32;;;;;;;32.45;18.63;;;;;;;;;;5037337;28;20115;-69
2022/03/26 10:29:59;;;;;;;30.05;17.27;;;;;;;;;;5037174;28;20052;-69
2022/03/26 10:32:50;;;;;;;33.45;18.35;;;;;;;;;;5020486;28;20056;-69
2022/03/26 10:35:16;;;;;;;34.17;16.92;;;;;;;;;;5037104;28;20408;-69
2022/03/26 10:37:42;;;;;;;19.30;11.48;;;;;;;;;;5054907;28;20059;-70
2022/03/26 10:40:29;;;;;;;19.70;11.35;;;;;;;;;;5055320;28;20041;-70
2022/03/26 10:43:15;;;;;;;17.50;11.35;;;;;;;;;;5054663;28;20119;-70
2022/03/26 10:45:48;;;;;;;18.30;10.13;;;;;;;;;;5054457;28;20073;-70
2022/03/26 10:48:14;;;;;;;23.63;11.20;;;;;;;;;;5055151;28;20141;-68
2022/03/26 10:50:41;;;;;;;22.98;12.30;;;;;;;;;;5054633;28;20045;-70
2022/03/26 10:53:16;;;;;;;22.02;12.68;;;;;;;;;;5036747;28;20044;-69
2022/03/26 10:55:43;;;;;;;19.10;12.73;;;;;;;;;;5054844;28;20547;-69
2022/03/26 10:58:10;;;;;;;22.15;12.82;;;;;;;;;;5054884;28;20213;-69
2022/03/26 11:00:36;;;;;;;19.83;12.82;;;;;;;;;;5054572;28;20044;-69
2022/03/26 11:03:02;;;;;;;22.17;12.32;;;;;;;;;;5056097;28;20439;-68
2022/03/26 11:05:29;;;;;;;18.88;12.43;;;;;;;;;;5055062;28;20036;-69
2022/03/26 11:07:56;;;;;;;18.55;12.40;;;;;;;;;;5054101;28;20045;-69
2022/03/26 11:10:25;;;;;;;20.52;11.93;;;;;;;;;;5036343;28;20105;-69
2022/03/26 11:12:52;;;;;;;20.25;12.27;;;;;;;;;;5054549;28;20044;-69
2022/03/26 11:15:24;;;;;;;20.63;11.85;;;;;;;;;;5054274;28;20041;-71
2022/03/26 11:18:05;;;;;;;19.30;12.02;;;;;;;;;;5054215;28;20044;-69
2022/03/26 11:20:31;;;;;;;25.90;13.38;;;;;;;;;;5054264;28;20051;-70
2022/03/26 11:23:16;;;;;;;17.73;11.20;;;;;;;;;;5054574;28;20072;-69
2022/03/26 11:25:54;;;;;;;15.68;10.80;;;;;;;;;;5053993;28;20056;-69
2022/03/26 11:28:20;;;;;;;;;;;;;;;;;;5053838;28;20369;-70
2022/03/26 11:31:05;;;;;;;16.00;10.95;;;;;;;;;;5054239;28;19981;-70
2022/03/26 11:33:35;;;;;;;20.58;12.80;;;;;;;;;;5054006;28;20073;-70
2022/03/26 11:36:02;;;;;;;20.85;12.40;;;;;;;;;;5036304;28;20053;-69
2022/03/26 11:38:29;;;;;;;19.73;11.82;;;;;;;;;;5036019;28;20136;-70
2022/03/26 11:40:57;;;;;;;19.03;12.37;;;;;;;;;;5053846;28;20126;-70
2022/03/26 11:43:41;;;;;;;18.77;12.02;;;;;;;;;;5053168;28;20048;-70
2022/03/26 11:51:39;;;;;;;21.42;13.32;;;;;;;;;;5051911;28;20041;-70
2022/03/26 11:54:05;;;;;;;23.23;13.85;;;;;;;;;;5035886;28;20434;-71
2022/03/26 11:56:32;;;;;;;20.10;12.68;;;;;;;;;;5053500;28;20049;-70
2022/03/26 11:59:03;;;;;;;19.67;12.10;;;;;;;;;;5053493;28;20407;-69
2022/03/26 12:01:37;;;;;;;17.50;12.82;;;;;;;;;;5053284;28;20053;-69
2022/03/26 12:04:10;;;;;;;25.75;13.65;;;;;;;;;;5053066;28;20072;-69
2022/03/26 12:06:48;;;;;;;36.95;14.55;;;;;;;;;;5053369;28;20051;-70
2022/03/26 12:09:37;;;;;;;22.05;13.85;;;;;;;;;;5053283;28;20052;-70
2022/03/26 12:12:08;;;;;;;17.10;11.65;;;;;;;;;;5053282;28;20130;-69
2022/03/26 12:14:34;;;;;;;17.15;11.30;;;;;;;;;;5052823;28;20087;-69
2022/03/26 12:17:02;;;;;;;17.95;12.10;;;;;;;;;;5053049;28;20048;-70
2022/03/26 12:19:38;;;;;;;14.63;10.02;;;;;;;;;;5053351;28;20052;-70
2022/03/26 12:22:26;;;;;;;13.27;10.10;;;;;;;;;;5052588;28;20049;-70
2022/03/26 12:24:53;;;;;;;23.23;10.75;;;;;;;;;;5052849;28;20158;-70
2022/03/26 12:27:20;;;;;;;18.53;10.93;;;;;;;;;;5053053;28;20520;-70
2022/03/26 12:29:46;;;;;;;16.17;9.93;;;;;;;;;;5053233;28;20767;-70
2022/03/26 12:32:13;;;;;;;14.00;10.27;;;;;;;;;;5052930;28;20052;-70
2022/03/26 12:35:11;;;;;;;15.82;10.05;;;;;;;;;;5052984;28;20397;-70
2022/03/26 12:37:38;;;;;;;16.05;10.50;;;;;;;;;;4982190;28;20072;-70
2022/03/26 12:40:08;;;;;;;12.85;9.82;;;;;;;;;;5037943;28;20052;-70
2022/03/26 12:42:34;;;;;;;17.02;9.25;;;;;;;;;;5039249;28;20404;-69
2022/03/26 12:45:00;;;;;;;19.30;9.45;;;;;;;;;;5056737;28;20061;-69
2022/03/26 12:47:27;;;;;;;13.02;9.15;;;;;;;;;;5039244;28;20049;-69
2022/03/26 12:49:54;;;;;;;11.00;8.85;;;;;;;;;;5039026;28;20053;-69
2022/03/26 12:52:25;;;;;;;11.82;8.48;;;;;;;;;;5057172;28;20052;-69
2022/03/26 12:54:59;;;;;;;16.92;8.40;;;;;;;;;;5039135;28;20099;-69
2022/03/26 12:57:25;;;;;;;12.60;7.50;;;;;;;;;;5038751;28;20041;-70
2022/03/26 12:59:52;;;;;;;13.70;7.63;;;;;;;;;;5056840;28;20041;-69
2022/03/26 13:02:18;;;;;;;9.23;6.57;;;;;;;;;;5056956;28;20480;-69
2022/03/26 13:04:44;;;;;;;7.50;5.60;;;;;;;;;;5022667;28;20106;-70
2022/03/26 13:07:10;;;;;;;6.85;5.05;;;;;;;;;;5056654;28;20095;-69
2022/03/26 13:09:36;;;;;;;23.15;7.82;;;;;;;;;;5056739;28;20116;-68
2022/03/26 13:12:02;;;;;;;9.48;5.47;;;;;;;;;;5056574;28;20432;-69
2022/03/26 13:14:28;;;;;;;11.50;5.00;;;;;;;;;;5056199;28;20045;-68
2022/03/26 13:16:54;;;;;;;10.27;6.18;;;;;;;;;;5056169;28;20040;-69
2022/03/26 13:19:20;;;;;;;12.45;6.28;;;;;;;;;;5038699;28;20095;-69
2022/03/26 13:21:51;;;;;;;10.73;6.22;;;;;;;;;;5038554;28;20056;-70
2022/03/26 13:24:18;;;;;;;9.50;6.25;;;;;;;;;;5038585;28;20051;-69
2022/03/26 13:26:46;;;;;;;10.52;5.97;;;;;;;;;;5056313;28;20040;-69
2022/03/26 13:29:12;;;;;;;;;;;;;;;;;;5056843;28;20040;-70
2022/03/26 13:31:46;;;;;;;10.00;5.68;;;;;;;;;;5056030;28;19928;-69
2022/03/26 13:34:13;;;;;;;12.13;6.32;;;;;;;;;;5038110;28;20126;-69
2022/03/26 13:36:39;;;;;;;10.07;5.35;;;;;;;;;;5056026;28;20048;-68
2022/03/26 13:39:21;;;;;;;9.13;5.25;;;;;;;;;;5056293;28;20128;-69
2022/03/26 13:41:47;;;;;;;9.73;5.50;;;;;;;;;;5021502;28;20061;-69
2022/03/26 13:44:14;;;;;;;8.30;5.13;;;;;;;;;;5037591;28;20053;-68
2022/03/26 13:46:40;;;;;;;11.77;5.80;;;;;;;;;;5055376;28;20547;-68
2022/03/26 13:49:06;;;;;;;10.48;6.07;;;;;;;;;;5037326;28;20044;-68
2022/03/26 13:51:33;;;;;;;8.80;5.60;;;;;;;;;;5055342;28;20041;-70
2022/03/26 13:54:03;;;;;;;14.33;7.40;;;;;;;;;;5055516;28;20226;-70
2022/03/26 13:56:31;;;;;;;12.50;7.22;;;;;;;;;;5055510;28;20052;-69
2022/03/26 13:59:00;;;;;;;15.55;6.50;;;;;;;;;;5056168;28;20575;-69
2022/03/26 14:01:26;;;;;;;13.02;6.57;;;;;;;;;;5055698;28;20045;-69
2022/03/26 14:03:53;;;;;;;11.43;5.53;;;;;;;;;;5055709;28;20105;-69
2022/03/26 14:06:19;;;;;;;15.10;6.53;;;;;;;;;;5055464;28;20060;-69
2022/03/26 14:08:47;;;;;;;8.80;4.30;;;;;;;;;;5055521;28;20077;-69
2022/03/26 14:11:14;;;;;;;7.65;4.60;;;;;;;;;;5037948;28;20048;-69
2022/03/26 14:13:40;;;;;;;14.02;4.80;;;;;;;;;;5037227;28;20048;-68
2022/03/26 14:16:06;;;;;;;13.20;4.03;;;;;;;;;;5055465;28;20076;-68
2022/03/26 14:18:32;;;;;;;7.85;3.78;;;;;;;;;;5055125;28;20037;-69
2022/03/26 14:20:58;;;;;;;8.55;3.50;;;;;;;;;;5055236;28;20051;-68
2022/03/26 14:23:24;;;;;;;5.38;3.55;;;;;;;;;;5055594;28;20037;-68
2022/03/26 14:25:50;;;;;;;5.72;3.28;;;;;;;;;;5056022;28;20124;-68